sensor_id;sensor_type;location;lat;lon;timestamp;temperature;humidity
10344;DHT22;5217;43.960;10.954;2023-02-28T00:01:31;12.40;82.40
10344;DHT22;5217;43.960;10.954;2023-02-28T00:04:01;12.40;82.30
10344;DHT22;5217;43.960;10.954;2023-02-28T00:06:29;12.40;82.30
10344;DHT22;5217;43.960;10.954;2023-02-28T00:08:59;12.40;82.50
10344;DHT22;5217;43.960;10.954;2023-02-28T00:11:27;12.40;82.70
10344;DHT22;5217;43.960;10.954;2023-02-28T00:13:56;12.40;82.90
10344;DHT22;5217;43.960;10.954;2023-02-28T00:16:25;12.40;83.10
10344;DHT22;5217;43.960;10.954;2023-02-28T00:18:53;12.40;83.00
10344;DHT22;5217;43.960;10.954;2023-02-28T00:21:21;12.40;83.10
10344;DHT22;5217;43.960;10.954;2023-02-28T00:23:50;12.30;83.10
10344;DHT22;5217;43.960;10.954;2023-02-28T00:26:19;12.40;83.20
10344;DHT22;5217;43.960;10.954;2023-02-28T00:28:48;12.30;83.00
10344;DHT22;5217;43.960;10.954;2023-02-28T00:31:16;12.30;82.90
10344;DHT22;5217;43.960;10.954;2023-02-28T00:33:44;12.30;83.00
10344;DHT22;5217;43.960;10.954;2023-02-28T00:36:13;12.30;83.00
10344;DHT22;5217;43.960;10.954;2023-02-28T00:38:41;12.30;83.10
10344;DHT22;5217;43.960;10.954;2023-02-28T00:41:09;12.30;83.00
10344;DHT22;5217;43.960;10.954;2023-02-28T00:43:40;12.30;83.00
10344;DHT22;5217;43.960;10.954;2023-02-28T00:46:08;12.30;83.10
10344;DHT22;5217;43.960;10.954;2023-02-28T00:48:37;12.20;82.90
10344;DHT22;5217;43.960;10.954;2023-02-28T00:51:05;12.20;82.90
10344;DHT22;5217;43.960;10.954;2023-02-28T00:53:33;12.20;82.90
10344;DHT22;5217;43.960;10.954;2023-02-28T00:56:02;12.20;82.90
10344;DHT22;5217;43.960;10.954;2023-02-28T00:58:31;12.20;82.80
10344;DHT22;5217;43.960;10.954;2023-02-28T01:01:01;12.20;82.50
10344;DHT22;5217;43.960;10.954;2023-02-28T01:03:29;12.20;82.30
10344;DHT22;5217;43.960;10.954;2023-02-28T01:05:57;12.20;82.50
10344;DHT22;5217;43.960;10.954;2023-02-28T01:08:26;12.20;82.40
10344;DHT22;5217;43.960;10.954;2023-02-28T01:10:55;12.20;82.20
10344;DHT22;5217;43.960;10.954;2023-02-28T01:13:23;12.20;82.10
10344;DHT22;5217;43.960;10.954;2023-02-28T01:15:54;12.20;82.40
10344;DHT22;5217;43.960;10.954;2023-02-28T01:18:25;12.20;82.80
10344;DHT22;5217;43.960;10.954;2023-02-28T01:20:53;12.20;82.80
10344;DHT22;5217;43.960;10.954;2023-02-28T01:23:22;12.20;82.90
10344;DHT22;5217;43.960;10.954;2023-02-28T01:25:51;12.20;82.90
10344;DHT22;5217;43.960;10.954;2023-02-28T01:28:20;12.20;82.90
10344;DHT22;5217;43.960;10.954;2023-02-28T01:30:49;12.10;82.80
10344;DHT22;5217;43.960;10.954;2023-02-28T01:33:18;12.10;82.60
10344;DHT22;5217;43.960;10.954;2023-02-28T01:35:48;12.10;82.70
10344;DHT22;5217;43.960;10.954;2023-02-28T01:38:16;12.10;82.90
10344;DHT22;5217;43.960;10.954;2023-02-28T01:40:50;12.10;82.80
10344;DHT22;5217;43.960;10.954;2023-02-28T01:43:22;12.10;82.80
10344;DHT22;5217;43.960;10.954;2023-02-28T01:45:51;12.10;82.80
10344;DHT22;5217;43.960;10.954;2023-02-28T01:48:22;12.10;82.90
10344;DHT22;5217;43.960;10.954;2023-02-28T01:50:55;12.00;82.70
10344;DHT22;5217;43.960;10.954;2023-02-28T01:53:29;12.10;82.90
10344;DHT22;5217;43.960;10.954;2023-02-28T01:55:59;12.10;82.90
10344;DHT22;5217;43.960;10.954;2023-02-28T01:58:28;12.10;83.10
10344;DHT22;5217;43.960;10.954;2023-02-28T02:00:56;12.00;83.20
10344;DHT22;5217;43.960;10.954;2023-02-28T02:03:24;12.00;83.20
10344;DHT22;5217;43.960;10.954;2023-02-28T02:05:55;12.00;83.40
10344;DHT22;5217;43.960;10.954;2023-02-28T02:08:26;12.00;83.60
10344;DHT22;5217;43.960;10.954;2023-02-28T02:10:57;12.00;83.60
10344;DHT22;5217;43.960;10.954;2023-02-28T02:13:38;12.00;83.60
10344;DHT22;5217;43.960;10.954;2023-02-28T02:16:19;12.00;84.50
10344;DHT22;5217;43.960;10.954;2023-02-28T02:18:53;12.00;83.50
10344;DHT22;5217;43.960;10.954;2023-02-28T02:25:12;11.90;83.10
10344;DHT22;5217;43.960;10.954;2023-02-28T02:28:05;11.90;83.10
10344;DHT22;5217;43.960;10.954;2023-02-28T02:34:28;11.90;82.60
10344;DHT22;5217;43.960;10.954;2023-02-28T02:37:09;11.90;82.70
10344;DHT22;5217;43.960;10.954;2023-02-28T02:39:46;11.90;82.60
10344;DHT22;5217;43.960;10.954;2023-02-28T02:42:20;11.90;82.70
10344;DHT22;5217;43.960;10.954;2023-02-28T02:44:53;11.90;82.80
10344;DHT22;5217;43.960;10.954;2023-02-28T02:47:26;11.90;82.80
10344;DHT22;5217;43.960;10.954;2023-02-28T02:49:59;11.90;83.00
10344;DHT22;5217;43.960;10.954;2023-02-28T02:52:34;11.90;82.70
10344;DHT22;5217;43.960;10.954;2023-02-28T02:55:04;11.90;82.60
10344;DHT22;5217;43.960;10.954;2023-02-28T02:57:37;11.90;82.60
10344;DHT22;5217;43.960;10.954;2023-02-28T03:00:09;11.90;82.70
10344;DHT22;5217;43.960;10.954;2023-02-28T03:02:40;11.80;82.50
10344;DHT22;5217;43.960;10.954;2023-02-28T03:05:16;11.80;82.50
10344;DHT22;5217;43.960;10.954;2023-02-28T03:07:47;11.80;82.50
10344;DHT22;5217;43.960;10.954;2023-02-28T03:10:31;11.80;82.40
10344;DHT22;5217;43.960;10.954;2023-02-28T03:13:36;11.80;82.60
10344;DHT22;5217;43.960;10.954;2023-02-28T03:16:27;11.90;82.70
10344;DHT22;5217;43.960;10.954;2023-02-28T03:19:05;11.80;82.50
10344;DHT22;5217;43.960;10.954;2023-02-28T03:21:43;11.80;82.50
10344;DHT22;5217;43.960;10.954;2023-02-28T03:24:19;11.80;82.50
10344;DHT22;5217;43.960;10.954;2023-02-28T03:26:54;11.80;83.10
10344;DHT22;5217;43.960;10.954;2023-02-28T03:29:30;11.80;83.10
10344;DHT22;5217;43.960;10.954;2023-02-28T03:32:05;11.80;83.40
10344;DHT22;5217;43.960;10.954;2023-02-28T03:34:46;11.80;83.40
10344;DHT22;5217;43.960;10.954;2023-02-28T03:37:20;11.80;83.50
10344;DHT22;5217;43.960;10.954;2023-02-28T03:39:56;11.80;83.40
10344;DHT22;5217;43.960;10.954;2023-02-28T03:42:28;11.80;83.40
10344;DHT22;5217;43.960;10.954;2023-02-28T03:44:59;11.80;83.30
10344;DHT22;5217;43.960;10.954;2023-02-28T03:47:32;11.80;83.50
10344;DHT22;5217;43.960;10.954;2023-02-28T03:50:06;11.70;83.60
10344;DHT22;5217;43.960;10.954;2023-02-28T03:52:42;11.70;83.80
10344;DHT22;5217;43.960;10.954;2023-02-28T03:55:14;11.80;83.90
10344;DHT22;5217;43.960;10.954;2023-02-28T03:57:52;11.70;85.00
10344;DHT22;5217;43.960;10.954;2023-02-28T04:00:27;11.70;84.50
10344;DHT22;5217;43.960;10.954;2023-02-28T04:02:57;11.80;84.50
10344;DHT22;5217;43.960;10.954;2023-02-28T04:05:31;11.70;84.20
10344;DHT22;5217;43.960;10.954;2023-02-28T04:08:05;11.70;84.50
10344;DHT22;5217;43.960;10.954;2023-02-28T04:10:35;11.80;84.70
10344;DHT22;5217;43.960;10.954;2023-02-28T04:13:05;11.70;84.40
10344;DHT22;5217;43.960;10.954;2023-02-28T04:15:34;11.70;84.50
10344;DHT22;5217;43.960;10.954;2023-02-28T04:18:04;11.70;84.70
10344;DHT22;5217;43.960;10.954;2023-02-28T04:20:32;11.70;84.90
10344;DHT22;5217;43.960;10.954;2023-02-28T04:23:01;11.70;85.00
10344;DHT22;5217;43.960;10.954;2023-02-28T04:25:31;11.70;84.70
10344;DHT22;5217;43.960;10.954;2023-02-28T04:28:00;11.70;84.80
10344;DHT22;5217;43.960;10.954;2023-02-28T04:30:29;11.70;84.90
10344;DHT22;5217;43.960;10.954;2023-02-28T04:33:00;11.70;84.90
10344;DHT22;5217;43.960;10.954;2023-02-28T04:35:29;11.70;84.60
10344;DHT22;5217;43.960;10.954;2023-02-28T04:37:57;11.80;84.70
10344;DHT22;5217;43.960;10.954;2023-02-28T04:40:26;11.70;84.50
10344;DHT22;5217;43.960;10.954;2023-02-28T04:42:56;11.80;84.50
10344;DHT22;5217;43.960;10.954;2023-02-28T04:45:25;11.70;84.40
10344;DHT22;5217;43.960;10.954;2023-02-28T04:47:57;11.80;84.30
10344;DHT22;5217;43.960;10.954;2023-02-28T04:50:25;11.80;84.30
10344;DHT22;5217;43.960;10.954;2023-02-28T04:52:54;11.80;84.40
10344;DHT22;5217;43.960;10.954;2023-02-28T04:55:22;11.80;84.40
10344;DHT22;5217;43.960;10.954;2023-02-28T04:57:51;11.80;84.30
10344;DHT22;5217;43.960;10.954;2023-02-28T05:00:22;11.80;84.20
10344;DHT22;5217;43.960;10.954;2023-02-28T05:02:50;11.80;84.30
10344;DHT22;5217;43.960;10.954;2023-02-28T05:05:19;11.80;84.50
10344;DHT22;5217;43.960;10.954;2023-02-28T05:07:47;11.80;84.30
10344;DHT22;5217;43.960;10.954;2023-02-28T05:10:16;11.80;84.30
10344;DHT22;5217;43.960;10.954;2023-02-28T05:12:45;11.80;84.40
10344;DHT22;5217;43.960;10.954;2023-02-28T05:15:16;11.80;84.10
10344;DHT22;5217;43.960;10.954;2023-02-28T05:17:46;11.80;83.90
10344;DHT22;5217;43.960;10.954;2023-02-28T05:20:14;11.80;83.90
10344;DHT22;5217;43.960;10.954;2023-02-28T05:22:43;11.80;84.00
10344;DHT22;5217;43.960;10.954;2023-02-28T05:25:13;11.80;84.30
10344;DHT22;5217;43.960;10.954;2023-02-28T05:27:44;11.80;84.30
10344;DHT22;5217;43.960;10.954;2023-02-28T05:30:12;11.80;84.10
10344;DHT22;5217;43.960;10.954;2023-02-28T05:32:41;11.80;84.00
10344;DHT22;5217;43.960;10.954;2023-02-28T05:35:12;11.80;83.90
10344;DHT22;5217;43.960;10.954;2023-02-28T05:37:40;11.80;84.00
10344;DHT22;5217;43.960;10.954;2023-02-28T05:40:09;11.80;84.20
10344;DHT22;5217;43.960;10.954;2023-02-28T05:42:38;11.80;84.30
10344;DHT22;5217;43.960;10.954;2023-02-28T05:45:07;11.80;83.90
10344;DHT22;5217;43.960;10.954;2023-02-28T05:47:36;11.80;83.70
10344;DHT22;5217;43.960;10.954;2023-02-28T05:50:05;11.80;83.70
10344;DHT22;5217;43.960;10.954;2023-02-28T05:52:35;11.90;83.90
10344;DHT22;5217;43.960;10.954;2023-02-28T05:55:05;11.90;83.70
10344;DHT22;5217;43.960;10.954;2023-02-28T05:57:33;11.90;83.80
10344;DHT22;5217;43.960;10.954;2023-02-28T06:00:03;11.90;83.60
10344;DHT22;5217;43.960;10.954;2023-02-28T06:02:31;11.90;83.60
10344;DHT22;5217;43.960;10.954;2023-02-28T06:05:00;11.90;83.50
10344;DHT22;5217;43.960;10.954;2023-02-28T06:07:28;11.90;83.70
10344;DHT22;5217;43.960;10.954;2023-02-28T06:09:58;11.90;83.90
10344;DHT22;5217;43.960;10.954;2023-02-28T06:12:28;11.90;84.00
10344;DHT22;5217;43.960;10.954;2023-02-28T06:14:56;11.90;84.00
10344;DHT22;5217;43.960;10.954;2023-02-28T06:17:24;11.90;83.50
10344;DHT22;5217;43.960;10.954;2023-02-28T06:19:53;11.90;83.70
10344;DHT22;5217;43.960;10.954;2023-02-28T06:22:21;11.90;83.60
10344;DHT22;5217;43.960;10.954;2023-02-28T06:24:50;11.90;83.50
10344;DHT22;5217;43.960;10.954;2023-02-28T06:27:20;11.90;83.40
10344;DHT22;5217;43.960;10.954;2023-02-28T06:29:52;11.90;83.40
10344;DHT22;5217;43.960;10.954;2023-02-28T06:32:21;11.90;83.40
10344;DHT22;5217;43.960;10.954;2023-02-28T06:34:49;12.00;83.60
10344;DHT22;5217;43.960;10.954;2023-02-28T06:37:18;12.00;83.80
10344;DHT22;5217;43.960;10.954;2023-02-28T06:39:47;12.00;83.70
10344;DHT22;5217;43.960;10.954;2023-02-28T06:42:15;12.00;83.70
10344;DHT22;5217;43.960;10.954;2023-02-28T06:44:45;12.00;83.60
10344;DHT22;5217;43.960;10.954;2023-02-28T06:47:13;12.00;84.10
10344;DHT22;5217;43.960;10.954;2023-02-28T06:49:41;12.00;83.10
10344;DHT22;5217;43.960;10.954;2023-02-28T06:52:11;12.00;83.10
10344;DHT22;5217;43.960;10.954;2023-02-28T06:54:40;12.00;83.50
10344;DHT22;5217;43.960;10.954;2023-02-28T06:57:09;12.10;83.40
10344;DHT22;5217;43.960;10.954;2023-02-28T06:59:37;12.10;83.40
10344;DHT22;5217;43.960;10.954;2023-02-28T07:02:08;12.10;83.40
10344;DHT22;5217;43.960;10.954;2023-02-28T07:04:36;12.10;83.40
10344;DHT22;5217;43.960;10.954;2023-02-28T07:07:07;12.10;83.50
10344;DHT22;5217;43.960;10.954;2023-02-28T07:09:35;12.10;83.70
10344;DHT22;5217;43.960;10.954;2023-02-28T07:12:04;12.10;83.60
10344;DHT22;5217;43.960;10.954;2023-02-28T07:14:33;12.10;83.60
10344;DHT22;5217;43.960;10.954;2023-02-28T07:17:01;12.20;83.80
10344;DHT22;5217;43.960;10.954;2023-02-28T07:19:31;12.20;83.80
10344;DHT22;5217;43.960;10.954;2023-02-28T07:21:59;12.20;83.90
10344;DHT22;5217;43.960;10.954;2023-02-28T07:24:29;12.20;84.00
10344;DHT22;5217;43.960;10.954;2023-02-28T07:26:58;12.20;84.10
10344;DHT22;5217;43.960;10.954;2023-02-28T07:29:27;12.20;84.00
10344;DHT22;5217;43.960;10.954;2023-02-28T07:31:56;12.20;84.10
10344;DHT22;5217;43.960;10.954;2023-02-28T07:34:24;12.20;83.90
10344;DHT22;5217;43.960;10.954;2023-02-28T07:36:55;12.30;83.80
10344;DHT22;5217;43.960;10.954;2023-02-28T07:39:24;12.20;83.50
10344;DHT22;5217;43.960;10.954;2023-02-28T07:41:52;12.30;83.60
10344;DHT22;5217;43.960;10.954;2023-02-28T07:44:20;12.30;83.50
10344;DHT22;5217;43.960;10.954;2023-02-28T07:46:48;12.30;83.50
10344;DHT22;5217;43.960;10.954;2023-02-28T07:49:17;12.30;83.50
10344;DHT22;5217;43.960;10.954;2023-02-28T07:51:45;12.40;83.70
10344;DHT22;5217;43.960;10.954;2023-02-28T07:54:15;12.40;84.00
10344;DHT22;5217;43.960;10.954;2023-02-28T07:56:43;12.50;84.00
10344;DHT22;5217;43.960;10.954;2023-02-28T07:59:12;12.50;83.90
10344;DHT22;5217;43.960;10.954;2023-02-28T08:01:40;12.60;83.90
10344;DHT22;5217;43.960;10.954;2023-02-28T08:04:10;12.60;83.80
10344;DHT22;5217;43.960;10.954;2023-02-28T08:06:39;12.60;84.20
10344;DHT22;5217;43.960;10.954;2023-02-28T08:09:07;12.70;84.20
10344;DHT22;5217;43.960;10.954;2023-02-28T08:11:37;12.60;84.30
10344;DHT22;5217;43.960;10.954;2023-02-28T08:14:06;12.70;85.00
10344;DHT22;5217;43.960;10.954;2023-02-28T08:16:34;12.80;85.00
10344;DHT22;5217;43.960;10.954;2023-02-28T08:19:03;12.80;84.90
10344;DHT22;5217;43.960;10.954;2023-02-28T08:21:31;12.80;85.00
10344;DHT22;5217;43.960;10.954;2023-02-28T08:23:59;12.90;85.10
10344;DHT22;5217;43.960;10.954;2023-02-28T08:26:28;12.90;85.30
10344;DHT22;5217;43.960;10.954;2023-02-28T08:28:57;13.00;85.60
10344;DHT22;5217;43.960;10.954;2023-02-28T08:31:27;13.00;85.40
10344;DHT22;5217;43.960;10.954;2023-02-28T08:33:56;13.00;85.30
10344;DHT22;5217;43.960;10.954;2023-02-28T08:36:26;13.10;85.60
10344;DHT22;5217;43.960;10.954;2023-02-28T08:38:56;13.10;85.40
10344;DHT22;5217;43.960;10.954;2023-02-28T08:41:25;13.10;85.30
10344;DHT22;5217;43.960;10.954;2023-02-28T08:43:54;13.00;85.30
10344;DHT22;5217;43.960;10.954;2023-02-28T08:46:24;13.00;85.20
10344;DHT22;5217;43.960;10.954;2023-02-28T08:48:53;13.00;85.30
10344;DHT22;5217;43.960;10.954;2023-02-28T08:51:22;13.10;85.20
10344;DHT22;5217;43.960;10.954;2023-02-28T08:53:55;13.10;85.10
10344;DHT22;5217;43.960;10.954;2023-02-28T08:56:24;13.10;85.40
10344;DHT22;5217;43.960;10.954;2023-02-28T08:58:54;13.20;85.70
10344;DHT22;5217;43.960;10.954;2023-02-28T09:01:25;13.20;85.20
10344;DHT22;5217;43.960;10.954;2023-02-28T09:03:56;13.10;85.00
10344;DHT22;5217;43.960;10.954;2023-02-28T09:06:26;13.20;85.10
10344;DHT22;5217;43.960;10.954;2023-02-28T09:08:57;13.20;84.80
10344;DHT22;5217;43.960;10.954;2023-02-28T09:11:28;13.20;84.80
10344;DHT22;5217;43.960;10.954;2023-02-28T09:13:57;13.30;84.90
10344;DHT22;5217;43.960;10.954;2023-02-28T09:16:28;13.30;85.00
10344;DHT22;5217;43.960;10.954;2023-02-28T09:18:58;13.30;85.00
10344;DHT22;5217;43.960;10.954;2023-02-28T09:21:26;13.30;85.00
10344;DHT22;5217;43.960;10.954;2023-02-28T09:23:56;13.30;84.90
10344;DHT22;5217;43.960;10.954;2023-02-28T09:26:26;13.30;85.00
10344;DHT22;5217;43.960;10.954;2023-02-28T09:29:08;13.30;85.20
10344;DHT22;5217;43.960;10.954;2023-02-28T09:31:38;13.40;85.10
10344;DHT22;5217;43.960;10.954;2023-02-28T09:34:07;13.40;84.40
10344;DHT22;5217;43.960;10.954;2023-02-28T09:36:35;13.40;84.30
10344;DHT22;5217;43.960;10.954;2023-02-28T09:39:12;13.40;84.30
10344;DHT22;5217;43.960;10.954;2023-02-28T09:41:45;13.50;84.30
10344;DHT22;5217;43.960;10.954;2023-02-28T09:44:26;13.60;84.50
10344;DHT22;5217;43.960;10.954;2023-02-28T09:47:00;13.60;84.60
10344;DHT22;5217;43.960;10.954;2023-02-28T09:49:35;13.70;84.60
10344;DHT22;5217;43.960;10.954;2023-02-28T09:52:07;13.70;84.80
10344;DHT22;5217;43.960;10.954;2023-02-28T09:54:37;13.80;85.60
10344;DHT22;5217;43.960;10.954;2023-02-28T09:57:08;13.80;85.80
10344;DHT22;5217;43.960;10.954;2023-02-28T09:59:48;13.90;85.70
10344;DHT22;5217;43.960;10.954;2023-02-28T10:05:19;13.90;84.70
10344;DHT22;5217;43.960;10.954;2023-02-28T10:08:03;13.90;84.80
10344;DHT22;5217;43.960;10.954;2023-02-28T10:10:39;14.00;84.60
10344;DHT22;5217;43.960;10.954;2023-02-28T10:13:15;14.00;85.00
10344;DHT22;5217;43.960;10.954;2023-02-28T10:15:46;14.00;84.80
10344;DHT22;5217;43.960;10.954;2023-02-28T10:18:21;14.00;85.40
10344;DHT22;5217;43.960;10.954;2023-02-28T10:20:53;14.10;85.80
10344;DHT22;5217;43.960;10.954;2023-02-28T10:23:25;14.20;85.30
10344;DHT22;5217;43.960;10.954;2023-02-28T10:25:57;14.20;85.10
10344;DHT22;5217;43.960;10.954;2023-02-28T10:28:29;14.30;84.40
10344;DHT22;5217;43.960;10.954;2023-02-28T10:30:59;14.30;84.10
10344;DHT22;5217;43.960;10.954;2023-02-28T10:33:30;14.40;84.30
10344;DHT22;5217;43.960;10.954;2023-02-28T10:36:01;14.40;83.60
10344;DHT22;5217;43.960;10.954;2023-02-28T10:38:33;14.40;83.20
10344;DHT22;5217;43.960;10.954;2023-02-28T10:41:06;14.40;83.00
10344;DHT22;5217;43.960;10.954;2023-02-28T10:43:35;14.40;82.80
10344;DHT22;5217;43.960;10.954;2023-02-28T10:46:11;14.50;83.30
10344;DHT22;5217;43.960;10.954;2023-02-28T10:48:44;14.50;83.10
10344;DHT22;5217;43.960;10.954;2023-02-28T10:51:17;14.60;82.90
10344;DHT22;5217;43.960;10.954;2023-02-28T10:53:48;14.70;82.90
10344;DHT22;5217;43.960;10.954;2023-02-28T10:56:28;14.70;82.30
10344;DHT22;5217;43.960;10.954;2023-02-28T10:58:59;14.80;81.90
10344;DHT22;5217;43.960;10.954;2023-02-28T11:01:37;14.80;81.40
10344;DHT22;5217;43.960;10.954;2023-02-28T11:04:18;14.90;81.20
10344;DHT22;5217;43.960;10.954;2023-02-28T11:06:56;15.00;81.60
10344;DHT22;5217;43.960;10.954;2023-02-28T11:09:29;15.00;81.10
10344;DHT22;5217;43.960;10.954;2023-02-28T11:11:58;15.00;81.10
10344;DHT22;5217;43.960;10.954;2023-02-28T11:14:29;15.10;81.60
10344;DHT22;5217;43.960;10.954;2023-02-28T11:17:02;15.10;81.50
10344;DHT22;5217;43.960;10.954;2023-02-28T11:19:43;15.20;81.60
10344;DHT22;5217;43.960;10.954;2023-02-28T11:22:19;15.20;81.30
10344;DHT22;5217;43.960;10.954;2023-02-28T11:24:52;15.30;81.50
10344;DHT22;5217;43.960;10.954;2023-02-28T11:27:45;15.30;81.30
10344;DHT22;5217;43.960;10.954;2023-02-28T11:30:30;15.20;80.90
10344;DHT22;5217;43.960;10.954;2023-02-28T11:32:58;15.20;80.60
10344;DHT22;5217;43.960;10.954;2023-02-28T11:35:31;15.20;80.60
10344;DHT22;5217;43.960;10.954;2023-02-28T11:38:04;15.20;80.80
10344;DHT22;5217;43.960;10.954;2023-02-28T11:40:42;15.10;80.90
10344;DHT22;5217;43.960;10.954;2023-02-28T11:43:22;15.00;81.50
10344;DHT22;5217;43.960;10.954;2023-02-28T11:46:10;15.00;82.40
10344;DHT22;5217;43.960;10.954;2023-02-28T11:48:50;15.10;82.90
10344;DHT22;5217;43.960;10.954;2023-02-28T11:51:23;15.10;83.00
10344;DHT22;5217;43.960;10.954;2023-02-28T11:57:00;15.10;83.40
10344;DHT22;5217;43.960;10.954;2023-02-28T11:59:46;15.10;83.00
10344;DHT22;5217;43.960;10.954;2023-02-28T12:02:23;15.10;83.20
10344;DHT22;5217;43.960;10.954;2023-02-28T12:05:04;15.10;83.00
10344;DHT22;5217;43.960;10.954;2023-02-28T12:07:40;15.10;82.50
10344;DHT22;5217;43.960;10.954;2023-02-28T12:10:20;15.10;82.30
10344;DHT22;5217;43.960;10.954;2023-02-28T12:13:01;15.10;82.60
10344;DHT22;5217;43.960;10.954;2023-02-28T12:15:42;15.10;82.80
10344;DHT22;5217;43.960;10.954;2023-02-28T12:18:30;15.10;83.00
10344;DHT22;5217;43.960;10.954;2023-02-28T12:21:10;15.20;83.20
10344;DHT22;5217;43.960;10.954;2023-02-28T12:23:54;15.20;83.10
10344;DHT22;5217;43.960;10.954;2023-02-28T12:26:34;15.20;83.20
10344;DHT22;5217;43.960;10.954;2023-02-28T12:29:12;15.20;83.60
10344;DHT22;5217;43.960;10.954;2023-02-28T12:31:43;15.20;83.30
10344;DHT22;5217;43.960;10.954;2023-02-28T12:34:18;15.30;82.90
10344;DHT22;5217;43.960;10.954;2023-02-28T12:36:48;15.40;82.80
10344;DHT22;5217;43.960;10.954;2023-02-28T12:39:21;15.40;82.80
10344;DHT22;5217;43.960;10.954;2023-02-28T12:41:55;15.60;83.00
10344;DHT22;5217;43.960;10.954;2023-02-28T12:44:30;15.70;82.80
10344;DHT22;5217;43.960;10.954;2023-02-28T12:47:02;15.70;81.80
10344;DHT22;5217;43.960;10.954;2023-02-28T12:49:34;15.70;80.60
10344;DHT22;5217;43.960;10.954;2023-02-28T12:52:05;15.70;80.20
10344;DHT22;5217;43.960;10.954;2023-02-28T12:54:41;15.80;80.70
10344;DHT22;5217;43.960;10.954;2023-02-28T12:57:18;15.90;80.40
10344;DHT22;5217;43.960;10.954;2023-02-28T12:59:52;16.00;79.60
10344;DHT22;5217;43.960;10.954;2023-02-28T13:02:47;16.10;79.70
10344;DHT22;5217;43.960;10.954;2023-02-28T13:05:52;16.20;79.70
10344;DHT22;5217;43.960;10.954;2023-02-28T13:08:49;16.30;79.60
10344;DHT22;5217;43.960;10.954;2023-02-28T13:11:25;16.40;79.30
10344;DHT22;5217;43.960;10.954;2023-02-28T13:14:02;16.50;79.90
10344;DHT22;5217;43.960;10.954;2023-02-28T13:17:02;16.50;79.40
10344;DHT22;5217;43.960;10.954;2023-02-28T13:19:33;16.50;79.30
10344;DHT22;5217;43.960;10.954;2023-02-28T13:22:02;16.50;79.30
10344;DHT22;5217;43.960;10.954;2023-02-28T13:24:47;16.50;79.50
10344;DHT22;5217;43.960;10.954;2023-02-28T13:27:35;16.60;79.50
10344;DHT22;5217;43.960;10.954;2023-02-28T13:33:25;16.80;80.80
10344;DHT22;5217;43.960;10.954;2023-02-28T13:36:22;16.90;81.50
10344;DHT22;5217;43.960;10.954;2023-02-28T13:38:51;16.90;81.70
10344;DHT22;5217;43.960;10.954;2023-02-28T13:41:45;17.00;81.80
10344;DHT22;5217;43.960;10.954;2023-02-28T13:44:15;17.00;81.20
10344;DHT22;5217;43.960;10.954;2023-02-28T13:49:47;16.90;80.20
10344;DHT22;5217;43.960;10.954;2023-02-28T13:52:20;16.90;80.00
10344;DHT22;5217;43.960;10.954;2023-02-28T13:57:48;16.90;80.00
10344;DHT22;5217;43.960;10.954;2023-02-28T14:00:27;16.90;80.10
10344;DHT22;5217;43.960;10.954;2023-02-28T14:03:09;16.80;80.20
10344;DHT22;5217;43.960;10.954;2023-02-28T14:05:40;16.80;80.40
10344;DHT22;5217;43.960;10.954;2023-02-28T14:08:15;16.80;80.00
10344;DHT22;5217;43.960;10.954;2023-02-28T14:10:46;16.80;80.20
10344;DHT22;5217;43.960;10.954;2023-02-28T14:13:40;16.80;80.30
10344;DHT22;5217;43.960;10.954;2023-02-28T14:16:13;16.90;80.40
10344;DHT22;5217;43.960;10.954;2023-02-28T14:18:49;17.00;80.20
10344;DHT22;5217;43.960;10.954;2023-02-28T14:21:23;17.10;80.10
10344;DHT22;5217;43.960;10.954;2023-02-28T14:24:31;17.20;80.10
10344;DHT22;5217;43.960;10.954;2023-02-28T14:27:20;17.20;80.10
10344;DHT22;5217;43.960;10.954;2023-02-28T14:33:01;17.30;79.70
10344;DHT22;5217;43.960;10.954;2023-02-28T14:35:47;17.30;79.70
10344;DHT22;5217;43.960;10.954;2023-02-28T14:38:23;17.40;79.90
10344;DHT22;5217;43.960;10.954;2023-02-28T14:40:54;17.40;79.30
10344;DHT22;5217;43.960;10.954;2023-02-28T14:43:26;17.30;79.30
10344;DHT22;5217;43.960;10.954;2023-02-28T14:45:57;17.30;80.00
10344;DHT22;5217;43.960;10.954;2023-02-28T14:48:26;17.20;79.00
10344;DHT22;5217;43.960;10.954;2023-02-28T14:50:57;17.20;79.00
10344;DHT22;5217;43.960;10.954;2023-02-28T14:53:29;17.20;78.70
10344;DHT22;5217;43.960;10.954;2023-02-28T14:55:58;17.20;78.50
10344;DHT22;5217;43.960;10.954;2023-02-28T14:58:28;17.20;78.40
10344;DHT22;5217;43.960;10.954;2023-02-28T15:00:59;17.20;78.60
10344;DHT22;5217;43.960;10.954;2023-02-28T15:03:31;17.10;78.40
10344;DHT22;5217;43.960;10.954;2023-02-28T15:06:01;17.10;78.50
10344;DHT22;5217;43.960;10.954;2023-02-28T15:08:32;17.10;78.90
10344;DHT22;5217;43.960;10.954;2023-02-28T15:11:05;17.10;78.90
10344;DHT22;5217;43.960;10.954;2023-02-28T15:13:38;17.10;78.90
10344;DHT22;5217;43.960;10.954;2023-02-28T15:16:11;17.10;79.00
10344;DHT22;5217;43.960;10.954;2023-02-28T15:18:46;17.10;78.80
10344;DHT22;5217;43.960;10.954;2023-02-28T15:21:18;17.10;78.90
10344;DHT22;5217;43.960;10.954;2023-02-28T15:23:51;17.10;78.90
10344;DHT22;5217;43.960;10.954;2023-02-28T15:26:26;17.10;79.00
10344;DHT22;5217;43.960;10.954;2023-02-28T15:28:59;17.10;78.80
10344;DHT22;5217;43.960;10.954;2023-02-28T15:31:32;17.00;78.50
10344;DHT22;5217;43.960;10.954;2023-02-28T15:34:22;17.00;78.50
10344;DHT22;5217;43.960;10.954;2023-02-28T15:36:59;17.00;78.60
10344;DHT22;5217;43.960;10.954;2023-02-28T15:39:29;17.00;78.70
10344;DHT22;5217;43.960;10.954;2023-02-28T15:42:17;16.90;78.40
10344;DHT22;5217;43.960;10.954;2023-02-28T15:44:46;16.90;78.40
10344;DHT22;5217;43.960;10.954;2023-02-28T15:47:17;16.90;78.40
10344;DHT22;5217;43.960;10.954;2023-02-28T15:49:49;16.80;78.50
10344;DHT22;5217;43.960;10.954;2023-02-28T15:52:20;16.80;78.10
10344;DHT22;5217;43.960;10.954;2023-02-28T15:54:51;16.70;77.90
10344;DHT22;5217;43.960;10.954;2023-02-28T15:57:22;16.60;77.60
10344;DHT22;5217;43.960;10.954;2023-02-28T15:59:54;16.60;77.80
10344;DHT22;5217;43.960;10.954;2023-02-28T16:02:30;16.50;77.60
10344;DHT22;5217;43.960;10.954;2023-02-28T16:05:12;16.50;77.90
10344;DHT22;5217;43.960;10.954;2023-02-28T16:07:42;16.40;77.80
10344;DHT22;5217;43.960;10.954;2023-02-28T16:10:13;16.40;77.70
10344;DHT22;5217;43.960;10.954;2023-02-28T16:12:42;16.30;77.60
10344;DHT22;5217;43.960;10.954;2023-02-28T16:15:19;16.20;77.50
10344;DHT22;5217;43.960;10.954;2023-02-28T16:17:49;16.10;77.40
10344;DHT22;5217;43.960;10.954;2023-02-28T16:20:21;16.10;77.50
10344;DHT22;5217;43.960;10.954;2023-02-28T16:22:50;16.00;77.80
10344;DHT22;5217;43.960;10.954;2023-02-28T16:25:28;15.90;77.70
10344;DHT22;5217;43.960;10.954;2023-02-28T16:27:57;15.90;77.80
10344;DHT22;5217;43.960;10.954;2023-02-28T16:30:28;15.90;77.90